sensor_id;sensor_type;location;lat;lon;timestamp;temperature;humidity
7028;DHT22;3555;53.248;10.336;2023-07-16T00:00:59;22.90;32.90
7028;DHT22;3555;53.248;10.336;2023-07-16T00:03:26;22.80;1.00
7028;DHT22;3555;53.248;10.336;2023-07-16T00:05:53;22.60;99.90
7028;DHT22;3555;53.248;10.336;2023-07-16T00:08:22;22.50;99.90
7028;DHT22;3555;53.248;10.336;2023-07-16T00:10:49;22.40;1.00
7028;DHT22;3555;53.248;10.336;2023-07-16T00:13:16;22.30;1.00
7028;DHT22;3555;53.248;10.336;2023-07-16T00:15:42;22.30;1.00
7028;DHT22;3555;53.248;10.336;2023-07-16T00:18:09;22.40;1.00
7028;DHT22;3555;53.248;10.336;2023-07-16T00:20:36;22.40;1.00
7028;DHT22;3555;53.248;10.336;2023-07-16T00:23:03;22.40;1.00
7028;DHT22;3555;53.248;10.336;2023-07-16T00:25:31;22.40;1.00
7028;DHT22;3555;53.248;10.336;2023-07-16T00:27:58;22.40;1.00
7028;DHT22;3555;53.248;10.336;2023-07-16T00:30:25;22.40;1.00
7028;DHT22;3555;53.248;10.336;2023-07-16T00:32:52;22.40;1.00
7028;DHT22;3555;53.248;10.336;2023-07-16T00:35:19;22.40;1.00
7028;DHT22;3555;53.248;10.336;2023-07-16T00:37:46;22.30;1.00
7028;DHT22;3555;53.248;10.336;2023-07-16T00:40:13;22.30;1.00
7028;DHT22;3555;53.248;10.336;2023-07-16T00:42:41;22.20;1.00
7028;DHT22;3555;53.248;10.336;2023-07-16T00:45:12;22.10;1.00
7028;DHT22;3555;53.248;10.336;2023-07-16T00:47:40;21.90;54.90
7028;DHT22;3555;53.248;10.336;2023-07-16T00:50:09;21.80;61.30
7028;DHT22;3555;53.248;10.336;2023-07-16T00:52:37;21.80;8.20
7028;DHT22;3555;53.248;10.336;2023-07-16T00:55:05;21.80;99.90
7028;DHT22;3555;53.248;10.336;2023-07-16T00:57:33;21.80;1.00
7028;DHT22;3555;53.248;10.336;2023-07-16T01:00:02;21.90;1.00
7028;DHT22;3555;53.248;10.336;2023-07-16T01:02:29;21.90;99.90
7028;DHT22;3555;53.248;10.336;2023-07-16T01:04:56;21.80;1.00
7028;DHT22;3555;53.248;10.336;2023-07-16T01:07:25;21.80;1.00
7028;DHT22;3555;53.248;10.336;2023-07-16T01:09:53;21.90;1.00
7028;DHT22;3555;53.248;10.336;2023-07-16T01:12:22;21.90;99.90
7028;DHT22;3555;53.248;10.336;2023-07-16T01:14:50;21.90;99.90
7028;DHT22;3555;53.248;10.336;2023-07-16T01:17:19;22.00;99.90
7028;DHT22;3555;53.248;10.336;2023-07-16T01:19:46;22.10;27.60
7028;DHT22;3555;53.248;10.336;2023-07-16T01:22:35;22.10;1.00
7028;DHT22;3555;53.248;10.336;2023-07-16T01:25:31;22.00;1.00
7028;DHT22;3555;53.248;10.336;2023-07-16T01:28:14;22.00;1.00
7028;DHT22;3555;53.248;10.336;2023-07-16T01:30:45;21.90;1.00
7028;DHT22;3555;53.248;10.336;2023-07-16T01:33:13;21.90;1.00
7028;DHT22;3555;53.248;10.336;2023-07-16T01:35:42;21.70;36.80
7028;DHT22;3555;53.248;10.336;2023-07-16T01:38:10;21.70;99.90
7028;DHT22;3555;53.248;10.336;2023-07-16T01:40:37;21.60;99.90
7028;DHT22;3555;53.248;10.336;2023-07-16T01:43:04;21.50;99.90
7028;DHT22;3555;53.248;10.336;2023-07-16T01:45:31;21.30;1.00
7028;DHT22;3555;53.248;10.336;2023-07-16T01:48:09;21.30;1.00
7028;DHT22;3555;53.248;10.336;2023-07-16T01:50:40;21.30;1.00
7028;DHT22;3555;53.248;10.336;2023-07-16T01:53:07;21.30;1.00
7028;DHT22;3555;53.248;10.336;2023-07-16T01:55:34;21.20;1.00
7028;DHT22;3555;53.248;10.336;2023-07-16T01:58:01;21.20;1.00
7028;DHT22;3555;53.248;10.336;2023-07-16T02:00:28;21.10;99.90
7028;DHT22;3555;53.248;10.336;2023-07-16T02:02:55;21.10;1.00
7028;DHT22;3555;53.248;10.336;2023-07-16T02:05:23;21.20;99.90
7028;DHT22;3555;53.248;10.336;2023-07-16T02:07:50;21.10;99.90
7028;DHT22;3555;53.248;10.336;2023-07-16T02:10:17;21.00;1.00
7028;DHT22;3555;53.248;10.336;2023-07-16T02:12:44;20.80;1.00
7028;DHT22;3555;53.248;10.336;2023-07-16T02:15:11;20.60;99.90
7028;DHT22;3555;53.248;10.336;2023-07-16T02:17:38;20.50;74.00
7028;DHT22;3555;53.248;10.336;2023-07-16T02:20:06;20.60;98.60
7028;DHT22;3555;53.248;10.336;2023-07-16T02:22:35;20.70;1.00
7028;DHT22;3555;53.248;10.336;2023-07-16T02:25:03;20.70;1.00
7028;DHT22;3555;53.248;10.336;2023-07-16T02:27:30;20.60;99.90
7028;DHT22;3555;53.248;10.336;2023-07-16T02:29:57;20.70;1.00
7028;DHT22;3555;53.248;10.336;2023-07-16T02:32:24;20.80;1.00
7028;DHT22;3555;53.248;10.336;2023-07-16T02:34:51;20.80;1.00
7028;DHT22;3555;53.248;10.336;2023-07-16T02:37:17;20.70;1.00
7028;DHT22;3555;53.248;10.336;2023-07-16T02:39:46;20.70;1.00
7028;DHT22;3555;53.248;10.336;2023-07-16T02:42:13;20.50;1.00
7028;DHT22;3555;53.248;10.336;2023-07-16T02:44:40;20.30;1.00
7028;DHT22;3555;53.248;10.336;2023-07-16T02:47:10;20.00;99.90
7028;DHT22;3555;53.248;10.336;2023-07-16T02:49:37;19.90;99.90
7028;DHT22;3555;53.248;10.336;2023-07-16T02:52:04;19.60;99.90
7028;DHT22;3555;53.248;10.336;2023-07-16T02:54:31;19.60;99.90
7028;DHT22;3555;53.248;10.336;2023-07-16T02:57:00;19.80;99.90
7028;DHT22;3555;53.248;10.336;2023-07-16T02:59:27;19.80;99.90
7028;DHT22;3555;53.248;10.336;2023-07-16T03:01:54;19.70;99.90
7028;DHT22;3555;53.248;10.336;2023-07-16T03:04:21;19.40;99.90
7028;DHT22;3555;53.248;10.336;2023-07-16T03:06:48;19.50;99.90
7028;DHT22;3555;53.248;10.336;2023-07-16T03:09:15;19.50;99.90
7028;DHT22;3555;53.248;10.336;2023-07-16T03:11:42;19.60;99.90
7028;DHT22;3555;53.248;10.336;2023-07-16T03:14:10;19.70;99.90
7028;DHT22;3555;53.248;10.336;2023-07-16T03:16:37;19.50;99.90
7028;DHT22;3555;53.248;10.336;2023-07-16T03:19:03;19.40;99.90
7028;DHT22;3555;53.248;10.336;2023-07-16T03:21:31;19.30;99.90
7028;DHT22;3555;53.248;10.336;2023-07-16T03:23:58;19.10;99.90
7028;DHT22;3555;53.248;10.336;2023-07-16T03:26:25;19.10;99.90
7028;DHT22;3555;53.248;10.336;2023-07-16T03:28:52;19.10;99.90
7028;DHT22;3555;53.248;10.336;2023-07-16T03:31:20;19.20;99.90
7028;DHT22;3555;53.248;10.336;2023-07-16T03:33:47;19.30;99.90
7028;DHT22;3555;53.248;10.336;2023-07-16T03:36:13;19.20;99.90
7028;DHT22;3555;53.248;10.336;2023-07-16T03:38:40;19.10;99.90
7028;DHT22;3555;53.248;10.336;2023-07-16T03:41:07;18.90;99.90
7028;DHT22;3555;53.248;10.336;2023-07-16T03:43:34;18.90;99.90
7028;DHT22;3555;53.248;10.336;2023-07-16T03:46:01;18.60;99.90
7028;DHT22;3555;53.248;10.336;2023-07-16T03:48:29;18.50;99.90
7028;DHT22;3555;53.248;10.336;2023-07-16T03:50:56;18.40;99.90
7028;DHT22;3555;53.248;10.336;2023-07-16T03:53:23;18.50;99.90
7028;DHT22;3555;53.248;10.336;2023-07-16T03:55:50;18.50;99.90
7028;DHT22;3555;53.248;10.336;2023-07-16T03:58:16;18.40;99.90
7028;DHT22;3555;53.248;10.336;2023-07-16T04:00:43;18.40;99.90
7028;DHT22;3555;53.248;10.336;2023-07-16T04:03:10;18.50;99.90
7028;DHT22;3555;53.248;10.336;2023-07-16T04:05:38;18.50;99.90
7028;DHT22;3555;53.248;10.336;2023-07-16T04:08:05;18.50;99.90
7028;DHT22;3555;53.248;10.336;2023-07-16T04:10:34;18.40;99.90
7028;DHT22;3555;53.248;10.336;2023-07-16T04:13:00;18.50;99.90
7028;DHT22;3555;53.248;10.336;2023-07-16T04:15:27;18.50;99.90
7028;DHT22;3555;53.248;10.336;2023-07-16T04:17:54;18.50;99.90
7028;DHT22;3555;53.248;10.336;2023-07-16T04:20:21;18.60;99.90
7028;DHT22;3555;53.248;10.336;2023-07-16T04:22:49;18.70;99.90
7028;DHT22;3555;53.248;10.336;2023-07-16T04:25:16;18.60;99.90
7028;DHT22;3555;53.248;10.336;2023-07-16T04:27:44;18.50;99.90
7028;DHT22;3555;53.248;10.336;2023-07-16T04:30:11;18.50;99.90
7028;DHT22;3555;53.248;10.336;2023-07-16T04:32:38;18.50;99.90
7028;DHT22;3555;53.248;10.336;2023-07-16T04:35:06;18.40;99.90
7028;DHT22;3555;53.248;10.336;2023-07-16T04:37:33;18.50;99.90
7028;DHT22;3555;53.248;10.336;2023-07-16T04:40:01;18.50;99.90
7028;DHT22;3555;53.248;10.336;2023-07-16T04:42:29;18.60;99.90
7028;DHT22;3555;53.248;10.336;2023-07-16T04:44:56;18.70;99.90
7028;DHT22;3555;53.248;10.336;2023-07-16T04:47:23;18.80;99.90
7028;DHT22;3555;53.248;10.336;2023-07-16T04:49:50;18.80;99.90
7028;DHT22;3555;53.248;10.336;2023-07-16T04:52:17;18.90;99.90
7028;DHT22;3555;53.248;10.336;2023-07-16T04:54:44;18.90;99.90
7028;DHT22;3555;53.248;10.336;2023-07-16T04:57:12;18.80;99.90
7028;DHT22;3555;53.248;10.336;2023-07-16T04:59:39;18.90;99.90
7028;DHT22;3555;53.248;10.336;2023-07-16T05:02:06;18.90;99.90
7028;DHT22;3555;53.248;10.336;2023-07-16T05:04:34;18.80;99.90
7028;DHT22;3555;53.248;10.336;2023-07-16T05:07:01;18.90;99.90
7028;DHT22;3555;53.248;10.336;2023-07-16T05:09:28;19.00;99.90
7028;DHT22;3555;53.248;10.336;2023-07-16T05:11:55;19.30;99.90
7028;DHT22;3555;53.248;10.336;2023-07-16T05:14:27;19.50;99.90
7028;DHT22;3555;53.248;10.336;2023-07-16T05:16:54;19.70;99.90
7028;DHT22;3555;53.248;10.336;2023-07-16T05:19:21;19.90;99.90
7028;DHT22;3555;53.248;10.336;2023-07-16T05:21:48;20.00;99.90
7028;DHT22;3555;53.248;10.336;2023-07-16T05:24:15;20.10;99.90
7028;DHT22;3555;53.248;10.336;2023-07-16T05:26:42;20.20;99.90
7028;DHT22;3555;53.248;10.336;2023-07-16T05:29:09;20.50;99.90
7028;DHT22;3555;53.248;10.336;2023-07-16T05:31:37;20.60;99.90
7028;DHT22;3555;53.248;10.336;2023-07-16T05:34:04;20.80;95.40
7028;DHT22;3555;53.248;10.336;2023-07-16T05:36:30;20.70;26.00
7028;DHT22;3555;53.248;10.336;2023-07-16T05:38:57;20.80;9.10
7028;DHT22;3555;53.248;10.336;2023-07-16T05:41:24;21.10;1.00
7028;DHT22;3555;53.248;10.336;2023-07-16T05:43:51;21.20;86.50
7028;DHT22;3555;53.248;10.336;2023-07-16T05:46:18;21.30;99.90
7028;DHT22;3555;53.248;10.336;2023-07-16T05:48:46;21.40;99.90
7028;DHT22;3555;53.248;10.336;2023-07-16T05:51:13;21.50;99.90
7028;DHT22;3555;53.248;10.336;2023-07-16T05:53:40;21.70;1.00
7028;DHT22;3555;53.248;10.336;2023-07-16T05:56:07;21.70;1.00
7028;DHT22;3555;53.248;10.336;2023-07-16T05:58:33;22.00;99.90
7028;DHT22;3555;53.248;10.336;2023-07-16T06:01:00;21.90;99.90
7028;DHT22;3555;53.248;10.336;2023-07-16T06:03:27;22.00;99.90
7028;DHT22;3555;53.248;10.336;2023-07-16T06:05:56;22.10;1.00
7028;DHT22;3555;53.248;10.336;2023-07-16T06:08:22;22.30;99.90
7028;DHT22;3555;53.248;10.336;2023-07-16T06:10:50;22.60;99.90
7028;DHT22;3555;53.248;10.336;2023-07-16T06:13:17;22.50;1.00
7028;DHT22;3555;53.248;10.336;2023-07-16T06:15:45;22.60;99.90
7028;DHT22;3555;53.248;10.336;2023-07-16T06:18:12;22.80;1.00
7028;DHT22;3555;53.248;10.336;2023-07-16T06:20:42;23.00;1.00
7028;DHT22;3555;53.248;10.336;2023-07-16T06:23:10;23.30;1.00
7028;DHT22;3555;53.248;10.336;2023-07-16T06:25:37;23.40;99.90
7028;DHT22;3555;53.248;10.336;2023-07-16T06:28:06;23.70;61.20
7028;DHT22;3555;53.248;10.336;2023-07-16T06:30:32;23.90;1.00
7028;DHT22;3555;53.248;10.336;2023-07-16T06:32:59;24.10;1.00
7028;DHT22;3555;53.248;10.336;2023-07-16T06:35:26;24.30;1.00
7028;DHT22;3555;53.248;10.336;2023-07-16T06:37:53;24.40;1.00
7028;DHT22;3555;53.248;10.336;2023-07-16T06:40:23;24.50;99.90
7028;DHT22;3555;53.248;10.336;2023-07-16T06:42:50;24.30;99.90
7028;DHT22;3555;53.248;10.336;2023-07-16T06:45:17;23.90;99.90
7028;DHT22;3555;53.248;10.336;2023-07-16T06:47:44;23.50;99.90
7028;DHT22;3555;53.248;10.336;2023-07-16T06:50:11;23.20;1.00
7028;DHT22;3555;53.248;10.336;2023-07-16T06:52:38;23.20;1.00
7028;DHT22;3555;53.248;10.336;2023-07-16T06:55:05;23.20;1.00
7028;DHT22;3555;53.248;10.336;2023-07-16T06:57:34;23.00;1.00
7028;DHT22;3555;53.248;10.336;2023-07-16T07:00:00;23.20;1.00
7028;DHT22;3555;53.248;10.336;2023-07-16T07:02:28;23.40;1.00
7028;DHT22;3555;53.248;10.336;2023-07-16T07:04:55;23.30;1.00
7028;DHT22;3555;53.248;10.336;2023-07-16T07:07:22;23.10;1.00
7028;DHT22;3555;53.248;10.336;2023-07-16T07:09:48;23.30;1.00
7028;DHT22;3555;53.248;10.336;2023-07-16T07:12:15;23.40;1.00
7028;DHT22;3555;53.248;10.336;2023-07-16T07:14:44;23.80;99.90
7028;DHT22;3555;53.248;10.336;2023-07-16T07:17:10;24.00;1.00
7028;DHT22;3555;53.248;10.336;2023-07-16T07:19:37;24.10;1.00
7028;DHT22;3555;53.248;10.336;2023-07-16T07:22:04;24.30;1.00
7028;DHT22;3555;53.248;10.336;2023-07-16T07:24:31;24.20;1.00
7028;DHT22;3555;53.248;10.336;2023-07-16T07:26:58;24.30;1.00
7028;DHT22;3555;53.248;10.336;2023-07-16T07:29:25;24.10;99.90
7028;DHT22;3555;53.248;10.336;2023-07-16T07:31:54;24.00;99.90
7028;DHT22;3555;53.248;10.336;2023-07-16T07:34:20;24.10;99.90
7028;DHT22;3555;53.248;10.336;2023-07-16T07:36:47;24.00;99.90
7028;DHT22;3555;53.248;10.336;2023-07-16T07:39:14;23.70;99.90
7028;DHT22;3555;53.248;10.336;2023-07-16T07:41:42;23.80;99.90
7028;DHT22;3555;53.248;10.336;2023-07-16T07:44:09;24.00;99.90
7028;DHT22;3555;53.248;10.336;2023-07-16T07:46:35;24.00;99.90
7028;DHT22;3555;53.248;10.336;2023-07-16T07:49:04;23.80;99.90
7028;DHT22;3555;53.248;10.336;2023-07-16T07:51:31;23.90;99.90
7028;DHT22;3555;53.248;10.336;2023-07-16T07:53:57;24.10;99.90
7028;DHT22;3555;53.248;10.336;2023-07-16T07:56:24;24.30;99.90
7028;DHT22;3555;53.248;10.336;2023-07-16T07:58:51;24.10;99.90
7028;DHT22;3555;53.248;10.336;2023-07-16T08:01:18;24.20;99.90
7028;DHT22;3555;53.248;10.336;2023-07-16T08:03:45;24.30;99.90
7028;DHT22;3555;53.248;10.336;2023-07-16T08:06:13;24.10;88.60
7028;DHT22;3555;53.248;10.336;2023-07-16T08:08:40;24.40;99.90
7028;DHT22;3555;53.248;10.336;2023-07-16T08:11:07;24.70;99.90
7028;DHT22;3555;53.248;10.336;2023-07-16T08:13:34;24.80;10.80
7028;DHT22;3555;53.248;10.336;2023-07-16T08:16:01;25.00;1.00
7028;DHT22;3555;53.248;10.336;2023-07-16T08:18:28;25.10;1.00
7028;DHT22;3555;53.248;10.336;2023-07-16T08:20:54;25.10;1.00
7028;DHT22;3555;53.248;10.336;2023-07-16T08:23:23;25.00;1.00
7028;DHT22;3555;53.248;10.336;2023-07-16T08:25:50;24.90;1.00
7028;DHT22;3555;53.248;10.336;2023-07-16T08:28:17;24.70;1.00
7028;DHT22;3555;53.248;10.336;2023-07-16T08:30:46;24.20;1.00
7028;DHT22;3555;53.248;10.336;2023-07-16T08:33:13;24.00;1.00
7028;DHT22;3555;53.248;10.336;2023-07-16T08:35:41;24.10;1.00
7028;DHT22;3555;53.248;10.336;2023-07-16T08:38:08;24.30;1.00
7028;DHT22;3555;53.248;10.336;2023-07-16T08:40:37;24.60;1.00
7028;DHT22;3555;53.248;10.336;2023-07-16T08:43:06;24.90;1.00
7028;DHT22;3555;53.248;10.336;2023-07-16T08:45:38;24.90;1.00
7028;DHT22;3555;53.248;10.336;2023-07-16T08:48:07;24.90;1.00
7028;DHT22;3555;53.248;10.336;2023-07-16T08:50:35;25.20;1.00
7028;DHT22;3555;53.248;10.336;2023-07-16T08:53:04;25.00;1.00
7028;DHT22;3555;53.248;10.336;2023-07-16T08:55:31;24.60;1.00
7028;DHT22;3555;53.248;10.336;2023-07-16T08:57:59;24.40;1.00
7028;DHT22;3555;53.248;10.336;2023-07-16T09:00:28;24.10;1.00
7028;DHT22;3555;53.248;10.336;2023-07-16T09:02:55;23.90;1.00
7028;DHT22;3555;53.248;10.336;2023-07-16T09:05:23;24.00;1.00
7028;DHT22;3555;53.248;10.336;2023-07-16T09:07:50;24.30;1.00
7028;DHT22;3555;53.248;10.336;2023-07-16T09:10:17;24.50;1.00
7028;DHT22;3555;53.248;10.336;2023-07-16T09:12:45;24.50;1.00
7028;DHT22;3555;53.248;10.336;2023-07-16T09:15:16;24.30;1.00
7028;DHT22;3555;53.248;10.336;2023-07-16T09:17:46;24.10;1.00
7028;DHT22;3555;53.248;10.336;2023-07-16T09:20:15;24.10;1.00
7028;DHT22;3555;53.248;10.336;2023-07-16T09:22:43;24.00;1.00
7028;DHT22;3555;53.248;10.336;2023-07-16T09:25:10;24.20;1.00
7028;DHT22;3555;53.248;10.336;2023-07-16T09:27:37;24.60;1.00
7028;DHT22;3555;53.248;10.336;2023-07-16T09:30:05;24.70;1.00
7028;DHT22;3555;53.248;10.336;2023-07-16T09:32:37;24.70;1.00
7028;DHT22;3555;53.248;10.336;2023-07-16T09:35:07;24.70;1.00
7028;DHT22;3555;53.248;10.336;2023-07-16T09:37:36;25.20;1.00
7028;DHT22;3555;53.248;10.336;2023-07-16T09:40:04;25.00;1.00
7028;DHT22;3555;53.248;10.336;2023-07-16T09:42:36;25.40;1.00
7028;DHT22;3555;53.248;10.336;2023-07-16T09:45:05;25.80;1.00
7028;DHT22;3555;53.248;10.336;2023-07-16T09:47:33;25.80;1.00
7028;DHT22;3555;53.248;10.336;2023-07-16T09:50:01;25.80;1.00
7028;DHT22;3555;53.248;10.336;2023-07-16T09:52:30;26.00;1.00
7028;DHT22;3555;53.248;10.336;2023-07-16T09:55:00;26.20;1.00
7028;DHT22;3555;53.248;10.336;2023-07-16T09:57:30;26.30;1.00
7028;DHT22;3555;53.248;10.336;2023-07-16T10:00:01;26.40;1.00
7028;DHT22;3555;53.248;10.336;2023-07-16T10:02:33;26.60;1.00
7028;DHT22;3555;53.248;10.336;2023-07-16T10:05:11;26.70;1.00
7028;DHT22;3555;53.248;10.336;2023-07-16T10:07:38;26.40;1.00
7028;DHT22;3555;53.248;10.336;2023-07-16T10:10:08;26.10;1.00
7028;DHT22;3555;53.248;10.336;2023-07-16T10:12:36;26.20;1.00
7028;DHT22;3555;53.248;10.336;2023-07-16T10:15:04;26.40;1.00
7028;DHT22;3555;53.248;10.336;2023-07-16T10:17:32;26.70;1.00
7028;DHT22;3555;53.248;10.336;2023-07-16T10:20:02;26.60;1.00
7028;DHT22;3555;53.248;10.336;2023-07-16T10:22:35;26.30;1.00
7028;DHT22;3555;53.248;10.336;2023-07-16T10:25:02;26.60;1.00
7028;DHT22;3555;53.248;10.336;2023-07-16T10:27:30;26.50;1.00
7028;DHT22;3555;53.248;10.336;2023-07-16T10:29:58;26.60;1.00
7028;DHT22;3555;53.248;10.336;2023-07-16T10:32:27;26.70;1.00
7028;DHT22;3555;53.248;10.336;2023-07-16T10:34:54;26.80;1.00
7028;DHT22;3555;53.248;10.336;2023-07-16T10:37:23;27.10;1.00
7028;DHT22;3555;53.248;10.336;2023-07-16T10:39:52;27.00;1.00
7028;DHT22;3555;53.248;10.336;2023-07-16T10:42:20;27.10;1.00
7028;DHT22;3555;53.248;10.336;2023-07-16T10:44:49;26.90;1.00
7028;DHT22;3555;53.248;10.336;2023-07-16T10:47:24;26.70;1.00
7028;DHT22;3555;53.248;10.336;2023-07-16T10:49:51;26.60;1.00
7028;DHT22;3555;53.248;10.336;2023-07-16T10:52:21;27.00;1.00
7028;DHT22;3555;53.248;10.336;2023-07-16T10:54:49;27.20;1.00
7028;DHT22;3555;53.248;10.336;2023-07-16T10:57:20;27.30;1.00
7028;DHT22;3555;53.248;10.336;2023-07-16T10:59:48;27.10;1.00
7028;DHT22;3555;53.248;10.336;2023-07-16T11:02:16;26.80;1.00
7028;DHT22;3555;53.248;10.336;2023-07-16T11:04:44;27.20;1.00
7028;DHT22;3555;53.248;10.336;2023-07-16T11:07:12;27.40;1.00
7028;DHT22;3555;53.248;10.336;2023-07-16T11:09:44;27.90;1.00
7028;DHT22;3555;53.248;10.336;2023-07-16T11:12:14;27.90;1.00
7028;DHT22;3555;53.248;10.336;2023-07-16T11:14:43;27.60;1.00
7028;DHT22;3555;53.248;10.336;2023-07-16T11:17:11;27.70;1.00
7028;DHT22;3555;53.248;10.336;2023-07-16T11:19:39;28.00;1.00
7028;DHT22;3555;53.248;10.336;2023-07-16T11:22:07;27.90;1.00
7028;DHT22;3555;53.248;10.336;2023-07-16T11:24:38;27.70;1.00
7028;DHT22;3555;53.248;10.336;2023-07-16T11:27:14;27.40;1.00
7028;DHT22;3555;53.248;10.336;2023-07-16T11:29:45;27.60;1.00
7028;DHT22;3555;53.248;10.336;2023-07-16T11:32:13;27.70;1.00
7028;DHT22;3555;53.248;10.336;2023-07-16T11:34:52;27.80;1.00
7028;DHT22;3555;53.248;10.336;2023-07-16T11:37:19;28.00;1.00
7028;DHT22;3555;53.248;10.336;2023-07-16T11:39:47;28.20;1.00
7028;DHT22;3555;53.248;10.336;2023-07-16T11:42:22;28.00;1.00
7028;DHT22;3555;53.248;10.336;2023-07-16T11:44:49;27.90;1.00
7028;DHT22;3555;53.248;10.336;2023-07-16T11:47:17;27.90;1.00
7028;DHT22;3555;53.248;10.336;2023-07-16T11:49:43;27.60;1.00
7028;DHT22;3555;53.248;10.336;2023-07-16T11:52:10;27.60;1.00
7028;DHT22;3555;53.248;10.336;2023-07-16T11:54:39;27.50;1.00
7028;DHT22;3555;53.248;10.336;2023-07-16T11:57:06;27.30;1.00
7028;DHT22;3555;53.248;10.336;2023-07-16T11:59:34;27.20;1.00
7028;DHT22;3555;53.248;10.336;2023-07-16T12:02:02;27.10;1.00
7028;DHT22;3555;53.248;10.336;2023-07-16T12:04:29;27.30;1.00
7028;DHT22;3555;53.248;10.336;2023-07-16T12:06:56;27.70;1.00
7028;DHT22;3555;53.248;10.336;2023-07-16T12:09:23;27.90;1.00
7028;DHT22;3555;53.248;10.336;2023-07-16T12:11:50;28.10;1.00
7028;DHT22;3555;53.248;10.336;2023-07-16T12:14:17;27.90;1.00
7028;DHT22;3555;53.248;10.336;2023-07-16T12:16:45;27.60;1.00
7028;DHT22;3555;53.248;10.336;2023-07-16T12:19:12;27.40;1.00
7028;DHT22;3555;53.248;10.336;2023-07-16T12:21:39;27.20;1.00
7028;DHT22;3555;53.248;10.336;2023-07-16T12:24:06;27.30;1.00
7028;DHT22;3555;53.248;10.336;2023-07-16T12:26:33;27.50;1.00
7028;DHT22;3555;53.248;10.336;2023-07-16T12:29:00;27.60;1.00
7028;DHT22;3555;53.248;10.336;2023-07-16T12:31:30;27.30;1.00
7028;DHT22;3555;53.248;10.336;2023-07-16T12:33:58;27.00;1.00
7028;DHT22;3555;53.248;10.336;2023-07-16T12:36:25;26.80;1.00
7028;DHT22;3555;53.248;10.336;2023-07-16T12:38:52;26.70;1.00
7028;DHT22;3555;53.248;10.336;2023-07-16T12:41:19;26.70;1.00
7028;DHT22;3555;53.248;10.336;2023-07-16T12:43:46;26.80;1.00
7028;DHT22;3555;53.248;10.336;2023-07-16T12:46:13;26.80;1.00
7028;DHT22;3555;53.248;10.336;2023-07-16T12:48:40;27.00;1.00
7028;DHT22;3555;53.248;10.336;2023-07-16T12:51:09;27.20;1.00
7028;DHT22;3555;53.248;10.336;2023-07-16T12:53:36;27.40;1.00
7028;DHT22;3555;53.248;10.336;2023-07-16T12:56:04;27.40;1.00
7028;DHT22;3555;53.248;10.336;2023-07-16T12:58:31;27.20;1.00
7028;DHT22;3555;53.248;10.336;2023-07-16T13:00:58;27.00;1.00
7028;DHT22;3555;53.248;10.336;2023-07-16T13:03:25;26.40;1.00
7028;DHT22;3555;53.248;10.336;2023-07-16T13:05:51;26.40;1.00
7028;DHT22;3555;53.248;10.336;2023-07-16T13:08:20;26.50;1.00
7028;DHT22;3555;53.248;10.336;2023-07-16T13:10:46;26.80;1.00
7028;DHT22;3555;53.248;10.336;2023-07-16T13:13:13;27.00;1.00
7028;DHT22;3555;53.248;10.336;2023-07-16T13:15:40;27.10;1.00
7028;DHT22;3555;53.248;10.336;2023-07-16T13:18:09;27.20;1.00
7028;DHT22;3555;53.248;10.336;2023-07-16T13:20:36;27.20;1.00
7028;DHT22;3555;53.248;10.336;2023-07-16T13:23:03;27.10;1.00
7028;DHT22;3555;53.248;10.336;2023-07-16T13:25:32;27.30;1.00
7028;DHT22;3555;53.248;10.336;2023-07-16T13:27:58;27.50;1.00
7028;DHT22;3555;53.248;10.336;2023-07-16T13:30:25;27.80;1.00
7028;DHT22;3555;53.248;10.336;2023-07-16T13:32:52;27.70;1.00
7028;DHT22;3555;53.248;10.336;2023-07-16T13:35:21;27.60;1.00
7028;DHT22;3555;53.248;10.336;2023-07-16T13:37:48;27.30;1.00
7028;DHT22;3555;53.248;10.336;2023-07-16T13:40:16;27.20;1.00
7028;DHT22;3555;53.248;10.336;2023-07-16T13:42:46;26.90;1.00
7028;DHT22;3555;53.248;10.336;2023-07-16T13:45:14;26.80;1.00
7028;DHT22;3555;53.248;10.336;2023-07-16T13:47:41;26.80;1.00
7028;DHT22;3555;53.248;10.336;2023-07-16T13:50:09;27.10;1.00
7028;DHT22;3555;53.248;10.336;2023-07-16T13:52:36;27.30;1.00
7028;DHT22;3555;53.248;10.336;2023-07-16T13:55:04;27.50;1.00
7028;DHT22;3555;53.248;10.336;2023-07-16T13:57:31;27.50;1.00
7028;DHT22;3555;53.248;10.336;2023-07-16T13:59:59;27.20;1.00
7028;DHT22;3555;53.248;10.336;2023-07-16T14:02:26;27.20;1.00
7028;DHT22;3555;53.248;10.336;2023-07-16T14:04:53;27.20;1.00
7028;DHT22;3555;53.248;10.336;2023-07-16T14:07:20;27.10;1.00
7028;DHT22;3555;53.248;10.336;2023-07-16T14:09:47;27.10;1.00
7028;DHT22;3555;53.248;10.336;2023-07-16T14:12:14;27.20;1.00
7028;DHT22;3555;53.248;10.336;2023-07-16T14:14:41;27.00;1.00
7028;DHT22;3555;53.248;10.336;2023-07-16T14:17:09;27.20;1.00
7028;DHT22;3555;53.248;10.336;2023-07-16T14:19:37;27.30;1.00
7028;DHT22;3555;53.248;10.336;2023-07-16T14:22:03;27.20;1.00
7028;DHT22;3555;53.248;10.336;2023-07-16T14:24:31;27.10;1.00
7028;DHT22;3555;53.248;10.336;2023-07-16T14:26:58;26.80;1.00
7028;DHT22;3555;53.248;10.336;2023-07-16T14:29:27;27.00;1.00
7028;DHT22;3555;53.248;10.336;2023-07-16T14:31:55;27.20;1.00
7028;DHT22;3555;53.248;10.336;2023-07-16T14:34:23;27.10;1.00
7028;DHT22;3555;53.248;10.336;2023-07-16T14:36:50;27.20;1.00
7028;DHT22;3555;53.248;10.336;2023-07-16T14:39:17;26.90;1.00
7028;DHT22;3555;53.248;10.336;2023-07-16T14:41:43;27.00;1.00
7028;DHT22;3555;53.248;10.336;2023-07-16T14:44:10;27.10;1.00
7028;DHT22;3555;53.248;10.336;2023-07-16T14:46:37;27.20;1.00
7028;DHT22;3555;53.248;10.336;2023-07-16T14:49:04;27.00;1.00
7028;DHT22;3555;53.248;10.336;2023-07-16T14:51:33;26.90;1.00
7028;DHT22;3555;53.248;10.336;2023-07-16T14:54:05;26.90;1.00
7028;DHT22;3555;53.248;10.336;2023-07-16T14:56:32;27.10;1.00
7028;DHT22;3555;53.248;10.336;2023-07-16T14:58:59;27.20;1.00
7028;DHT22;3555;53.248;10.336;2023-07-16T15:01:26;27.30;1.00
7028;DHT22;3555;53.248;10.336;2023-07-16T15:03:53;27.40;1.00
7028;DHT22;3555;53.248;10.336;2023-07-16T15:06:20;27.40;1.00
7028;DHT22;3555;53.248;10.336;2023-07-16T15:08:48;27.50;1.00
7028;DHT22;3555;53.248;10.336;2023-07-16T15:11:16;27.50;1.00
7028;DHT22;3555;53.248;10.336;2023-07-16T15:13:43;27.60;1.00
7028;DHT22;3555;53.248;10.336;2023-07-16T15:16:10;27.60;1.00
7028;DHT22;3555;53.248;10.336;2023-07-16T15:18:38;27.70;1.00
7028;DHT22;3555;53.248;10.336;2023-07-16T15:21:05;27.80;1.00
7028;DHT22;3555;53.248;10.336;2023-07-16T15:23:32;27.50;1.00
7028;DHT22;3555;53.248;10.336;2023-07-16T15:26:03;27.30;1.00
7028;DHT22;3555;53.248;10.336;2023-07-16T15:28:30;27.30;1.00
7028;DHT22;3555;53.248;10.336;2023-07-16T15:30:59;27.00;1.00
7028;DHT22;3555;53.248;10.336;2023-07-16T15:33:26;27.10;1.00
7028;DHT22;3555;53.248;10.336;2023-07-16T15:35:55;27.20;1.00
7028;DHT22;3555;53.248;10.336;2023-07-16T15:38:22;27.10;1.00
7028;DHT22;3555;53.248;10.336;2023-07-16T15:40:49;27.20;1.00
7028;DHT22;3555;53.248;10.336;2023-07-16T15:43:18;27.30;1.00
7028;DHT22;3555;53.248;10.336;2023-07-16T15:45:45;27.50;1.00
7028;DHT22;3555;53.248;10.336;2023-07-16T15:48:12;27.60;1.00
7028;DHT22;3555;53.248;10.336;2023-07-16T15:50:38;27.60;1.00
7028;DHT22;3555;53.248;10.336;2023-07-16T15:53:06;27.50;1.00
7028;DHT22;3555;53.248;10.336;2023-07-16T15:55:33;27.70;1.00
7028;DHT22;3555;53.248;10.336;2023-07-16T15:58:00;27.60;1.00
7028;DHT22;3555;53.248;10.336;2023-07-16T16:00:28;27.70;1.00